createdAt,value
2023-04-21T00:01:00.162Z,11.07
2023-04-21T00:03:28.085Z,11.68
2023-04-21T00:05:58.720Z,10.90
2023-04-21T00:08:26.894Z,11.30
2023-04-21T00:10:53.506Z,11.80
2023-04-21T00:13:20.130Z,12.32
2023-04-21T00:15:46.647Z,12.02
2023-04-21T00:18:13.477Z,11.20
2023-04-21T00:20:39.952Z,11.40
2023-04-21T00:23:06.574Z,12.05
2023-04-21T00:25:33.163Z,11.68
2023-04-21T00:27:59.739Z,11.23
2023-04-21T00:30:26.340Z,12.13
2023-04-21T00:32:52.962Z,11.77
2023-04-21T00:35:19.625Z,11.65
2023-04-21T00:37:46.031Z,12.38
2023-04-21T00:40:13.511Z,11.98
2023-04-21T00:42:40.101Z,11.68
2023-04-21T00:45:07.164Z,11.95
2023-04-21T00:47:33.905Z,11.85
2023-04-21T00:50:00.707Z,12.63
2023-04-21T00:52:28.146Z,12.25
2023-04-21T00:54:55.577Z,11.70
2023-04-21T00:57:22.934Z,12.48
2023-04-21T00:59:50.112Z,12.68
2023-04-21T01:02:17.481Z,12.80
2023-04-21T01:04:45.717Z,11.43
2023-04-21T01:07:12.793Z,12.43
2023-04-21T01:09:39.633Z,12.18
2023-04-21T01:12:11.388Z,12.63
2023-04-21T01:14:40.505Z,12.00
2023-04-21T01:17:08.290Z,11.50
2023-04-21T01:19:41.875Z,12.02
2023-04-21T01:22:11.210Z,12.32
2023-04-21T01:24:48.552Z,12.68
2023-04-21T01:27:21.414Z,12.27
2023-04-21T01:29:50.663Z,11.98
2023-04-21T01:32:36.977Z,11.95
2023-04-21T01:35:03.908Z,11.35
2023-04-21T01:37:32.657Z,11.82
2023-04-21T01:40:01.376Z,12.00
2023-04-21T01:42:29.543Z,12.15
2023-04-21T01:44:56.994Z,12.20
2023-04-21T01:47:24.490Z,12.00
2023-04-21T01:49:51.269Z,11.70
2023-04-21T01:52:17.977Z,12.40
2023-04-21T01:54:44.593Z,10.82
2023-04-21T01:57:11.245Z,11.65
2023-04-21T01:59:37.943Z,12.13
2023-04-21T02:02:05.030Z,11.25
2023-04-21T02:04:31.765Z,12.07
2023-04-21T02:06:58.467Z,11.75
2023-04-21T02:09:25.082Z,11.82
2023-04-21T02:11:51.891Z,11.18
2023-04-21T02:14:18.446Z,11.48
2023-04-21T02:16:44.965Z,11.60
2023-04-21T02:19:11.851Z,12.07
2023-04-21T02:21:38.390Z,11.88
2023-04-21T02:24:05.165Z,10.98
2023-04-21T02:26:31.743Z,11.90
2023-04-21T02:28:58.323Z,11.65
2023-04-21T02:31:24.964Z,11.30
2023-04-21T02:33:51.755Z,11.30
2023-04-21T02:36:18.289Z,11.32
2023-04-21T02:38:44.725Z,11.60
2023-04-21T02:41:11.353Z,11.40
2023-04-21T02:43:37.874Z,11.40
2023-04-21T02:46:08.300Z,12.20
2023-04-21T02:48:36.286Z,11.98
2023-04-21T02:51:04.346Z,12.13
2023-04-21T02:53:31.374Z,12.90
2023-04-21T02:55:58.022Z,12.30
2023-04-21T02:58:24.704Z,11.15
2023-04-21T03:00:51.587Z,11.77
2023-04-21T03:03:18.537Z,12.68
2023-04-21T03:05:45.626Z,12.27
2023-04-21T03:08:12.098Z,12.63
2023-04-21T03:10:38.749Z,12.10
2023-04-21T03:13:05.412Z,12.45
2023-04-21T03:15:31.995Z,11.82
2023-04-21T03:17:58.523Z,12.77
2023-04-21T03:20:25.054Z,12.02
2023-04-21T03:22:54.078Z,12.18
2023-04-21T03:25:20.581Z,12.18
2023-04-21T03:27:47.073Z,12.63
2023-04-21T03:30:13.511Z,12.60
2023-04-21T03:32:40.039Z,12.90
2023-04-21T03:35:06.607Z,12.18
2023-04-21T03:37:33.034Z,12.55
2023-04-21T03:39:59.491Z,12.60
2023-04-21T03:42:26.179Z,12.23
2023-04-21T03:44:52.680Z,12.57
2023-04-21T03:47:19.097Z,11.80
2023-04-21T03:49:45.613Z,11.90
2023-04-21T03:52:12.041Z,11.98
2023-04-21T03:54:38.428Z,12.20
2023-04-21T03:57:05.103Z,12.10
2023-04-21T03:59:31.526Z,10.63
2023-04-21T04:01:57.919Z,11.43
2023-04-21T04:04:24.488Z,11.82
2023-04-21T04:06:50.983Z,11.70
2023-04-21T04:09:17.384Z,11.63
2023-04-21T04:11:43.761Z,11.55
2023-04-21T04:14:10.198Z,11.63
2023-04-21T04:16:36.809Z,11.50
2023-04-21T04:19:03.651Z,11.20
2023-04-21T04:21:31.190Z,12.25
2023-04-21T04:23:57.543Z,12.02
2023-04-21T04:26:25.117Z,11.57
2023-04-21T04:28:56.163Z,11.20
2023-04-21T04:31:25.389Z,11.25
2023-04-21T04:33:55.009Z,11.25
2023-04-21T04:36:22.389Z,11.10
2023-04-21T04:38:48.753Z,11.30
2023-04-21T04:41:16.545Z,11.18
2023-04-21T04:43:43.890Z,11.65
2023-04-21T04:46:11.195Z,10.98
2023-04-21T04:48:37.616Z,10.68
2023-04-21T04:51:04.419Z,11.73
2023-04-21T04:53:31.153Z,11.45
2023-04-21T04:55:59.181Z,11.55
2023-04-21T04:58:25.914Z,10.48
2023-04-21T05:00:52.248Z,11.38
2023-04-21T05:03:18.913Z,11.27
2023-04-21T05:05:46.163Z,11.30
2023-04-21T05:08:12.581Z,10.88
2023-04-21T05:10:38.892Z,11.15
2023-04-21T05:13:05.276Z,10.63
2023-04-21T05:15:31.614Z,11.13
2023-04-21T05:17:58.084Z,10.65
2023-04-21T05:20:24.516Z,11.18
2023-04-21T05:22:50.945Z,11.00
2023-04-21T05:25:17.372Z,11.60
2023-04-21T05:27:43.802Z,11.05
2023-04-21T05:30:10.933Z,10.68
2023-04-21T05:32:37.390Z,10.90
2023-04-21T05:35:04.075Z,11.00
2023-04-21T05:37:30.522Z,11.80
2023-04-21T05:39:56.930Z,11.00
2023-04-21T05:42:23.401Z,11.98
2023-04-21T05:44:49.799Z,11.10
2023-04-21T05:47:16.259Z,11.23
2023-04-21T05:49:49.803Z,11.88
2023-04-21T05:52:17.519Z,11.40
2023-04-21T05:54:44.293Z,11.52
2023-04-21T05:57:10.804Z,11.10
2023-04-21T05:59:37.306Z,11.38
2023-04-21T06:02:04.088Z,11.00
2023-04-21T06:04:31.035Z,11.40
2023-04-21T06:06:57.632Z,11.45
2023-04-21T06:09:24.065Z,11.68
2023-04-21T06:11:50.794Z,11.25
2023-04-21T06:14:17.472Z,10.85
2023-04-21T06:16:44.232Z,11.43
2023-04-21T06:19:10.741Z,11.63
2023-04-21T06:21:37.165Z,11.30
2023-04-21T06:24:03.804Z,10.75
2023-04-21T06:26:30.464Z,11.38
2023-04-21T06:28:56.912Z,11.85
2023-04-21T06:31:23.448Z,12.65
2023-04-21T06:33:49.893Z,11.98
2023-04-21T06:36:17.984Z,11.70
2023-04-21T06:38:44.779Z,11.77
2023-04-21T06:41:11.220Z,11.15
2023-04-21T06:43:37.800Z,11.45
2023-04-21T06:46:04.315Z,11.95
2023-04-21T06:48:31.036Z,11.05
2023-04-21T06:50:57.497Z,11.95
2023-04-21T06:53:24.327Z,11.35
2023-04-21T06:55:50.843Z,11.20
2023-04-21T06:58:17.977Z,11.90
2023-04-21T07:00:46.310Z,11.23
2023-04-21T07:03:12.911Z,11.80
2023-04-21T07:05:39.476Z,12.32
2023-04-21T07:08:05.884Z,11.68
2023-04-21T07:10:32.394Z,12.50
2023-04-21T07:12:58.846Z,11.38
2023-04-21T07:15:25.242Z,12.40
2023-04-21T07:17:52.052Z,11.90
2023-04-21T07:20:18.845Z,12.35
2023-04-21T07:22:45.422Z,11.18
2023-04-21T07:25:12.585Z,11.80
2023-04-21T07:27:39.613Z,11.35
2023-04-21T07:30:07.063Z,11.48
2023-04-21T07:32:33.913Z,11.70
2023-04-21T07:35:01.949Z,12.63
2023-04-21T07:37:31.582Z,11.95
2023-04-21T07:39:57.974Z,11.80
2023-04-21T07:42:27.424Z,11.50
2023-04-21T07:44:55.924Z,11.70
2023-04-21T07:47:22.384Z,11.48
2023-04-21T07:49:54.078Z,11.82
2023-04-21T07:52:20.516Z,12.02
2023-04-21T07:54:47.038Z,11.60
2023-04-21T07:57:13.686Z,11.75
2023-04-21T07:59:40.163Z,12.52
2023-04-21T08:02:06.719Z,11.95
2023-04-21T08:04:33.270Z,11.93
2023-04-21T08:07:00.345Z,12.40
2023-04-21T08:09:27.431Z,11.52
2023-04-21T08:11:54.936Z,12.15
2023-04-21T08:14:21.765Z,11.15
2023-04-21T08:16:48.461Z,11.05
2023-04-21T08:19:14.985Z,11.38
2023-04-21T08:21:41.548Z,11.50
2023-04-21T08:24:08.124Z,11.43
2023-04-21T08:26:35.347Z,11.70
2023-04-21T08:29:04.040Z,11.80
2023-04-21T08:31:31.097Z,11.90
2023-04-21T08:34:02.049Z,12.00
2023-04-21T08:36:30.403Z,11.23
2023-04-21T08:38:57.979Z,11.50
2023-04-21T08:41:25.984Z,12.00
2023-04-21T08:43:52.471Z,11.30
2023-04-21T08:46:19.593Z,11.63
2023-04-21T08:48:46.921Z,12.38
2023-04-21T08:51:20.983Z,10.93
2023-04-21T08:53:47.407Z,11.07
2023-04-21T08:56:13.805Z,11.18
2023-04-21T08:58:41.512Z,12.52
2023-04-21T09:01:08.028Z,11.73
2023-04-21T09:03:34.741Z,11.55
2023-04-21T09:06:05.504Z,11.88
2023-04-21T09:08:32.963Z,11.13
2023-04-21T09:11:01.345Z,10.60
2023-04-21T09:13:33.246Z,10.20
2023-04-21T09:16:01.074Z,10.68
2023-04-21T09:18:40.474Z,10.88
2023-04-21T09:21:32.424Z,12.30
2023-04-21T09:24:06.514Z,10.90
2023-04-21T09:26:35.123Z,10.93
2023-04-21T09:29:06.934Z,10.73
2023-04-21T09:31:35.751Z,10.70
2023-04-21T09:34:02.643Z,10.75
2023-04-21T09:36:31.765Z,10.90
2023-04-21T09:41:32.487Z,10.80
2023-04-21T09:44:04.868Z,11.90
2023-04-21T09:46:45.013Z,10.43
2023-04-21T09:49:14.073Z,10.63
2023-04-21T09:52:14.317Z,11.13
2023-04-21T09:54:34.459Z,10.23
2023-04-21T09:57:03.924Z,11.05
2023-04-21T09:59:37.056Z,10.07
2023-04-21T10:02:08.083Z,10.50
2023-04-21T10:04:37.020Z,10.68
2023-04-21T10:07:04.185Z,10.82
2023-04-21T10:09:40.512Z,10.00
2023-04-21T10:12:10.384Z,10.18
2023-04-21T10:14:37.125Z,10.10
2023-04-21T10:17:11.152Z,10.18
2023-04-21T10:19:47.629Z,10.25
2023-04-21T10:22:14.175Z,9.75
2023-04-21T10:24:42.412Z,10.88
2023-04-21T10:27:13.120Z,9.30
2023-04-21T10:29:52.306Z,9.68
2023-04-21T10:32:42.472Z,9.98
2023-04-21T10:35:17.796Z,9.00
2023-04-21T10:37:48.722Z,9.20
2023-04-21T10:40:43.093Z,8.88
2023-04-21T10:43:43.440Z,8.13
2023-04-21T10:46:35.567Z,8.80
2023-04-21T10:49:09.259Z,8.23
2023-04-21T10:51:57.840Z,8.57
2023-04-21T10:54:28.237Z,8.25
2023-04-21T10:56:56.263Z,7.70
2023-04-21T10:59:23.996Z,8.10
2023-04-21T11:01:50.754Z,7.60
2023-04-21T11:04:22.227Z,6.80
2023-04-21T11:07:19.542Z,6.78
2023-04-21T11:09:48.412Z,7.05
2023-04-21T11:12:18.188Z,7.03
2023-04-21T11:14:48.203Z,6.22
2023-04-21T11:17:19.517Z,6.45
2023-04-21T11:19:56.665Z,5.90
2023-04-21T11:22:25.436Z,6.03
2023-04-21T11:24:54.745Z,6.20
2023-04-21T11:27:24.885Z,5.63
2023-04-21T11:29:51.678Z,5.65
2023-04-21T11:32:18.740Z,6.28
2023-04-21T11:34:45.772Z,5.55
2023-04-21T11:37:23.856Z,5.75
2023-04-21T11:39:50.490Z,5.00
2023-04-21T11:42:22.888Z,5.72
2023-04-21T11:44:49.371Z,5.50
2023-04-21T11:47:18.623Z,5.22
2023-04-21T11:49:57.293Z,5.60
2023-04-21T11:52:36.019Z,4.78
2023-04-21T11:55:15.295Z,5.25
2023-04-21T11:57:42.286Z,5.07
2023-04-21T12:00:11.998Z,5.03
2023-04-21T12:02:39.187Z,4.43
2023-04-21T12:05:08.339Z,4.45
2023-04-21T12:07:37.553Z,4.70
2023-04-21T12:10:18.628Z,4.35
2023-04-21T12:12:46.187Z,4.72
2023-04-21T12:15:20.441Z,4.45
2023-04-21T12:17:48.967Z,4.22
2023-04-21T12:20:17.407Z,4.80
2023-04-21T12:22:44.376Z,4.25
2023-04-21T12:25:11.213Z,4.82
2023-04-21T12:27:37.825Z,3.80
2023-04-21T12:30:04.809Z,3.92
2023-04-21T12:32:31.528Z,3.55
2023-04-21T12:34:58.053Z,3.97
2023-04-21T12:37:24.584Z,3.47
2023-04-21T12:39:51.164Z,3.85
2023-04-21T12:42:17.652Z,3.28
2023-04-21T12:44:44.329Z,3.42
2023-04-21T12:47:10.788Z,3.42
2023-04-21T12:49:38.062Z,3.80
2023-04-21T12:52:06.096Z,3.90
2023-04-21T12:54:33.020Z,3.60
2023-04-21T12:56:59.662Z,3.15
2023-04-21T12:59:26.501Z,3.10
2023-04-21T13:01:53.192Z,3.20
2023-04-21T13:04:19.962Z,3.20
2023-04-21T13:06:46.778Z,2.95
2023-04-21T13:09:13.312Z,2.85
2023-04-21T13:11:39.977Z,3.30
2023-04-21T13:14:07.504Z,3.08
2023-04-21T13:16:34.103Z,2.95
2023-04-21T13:19:00.770Z,3.20
2023-04-21T13:21:27.840Z,2.75
2023-04-21T13:23:54.521Z,2.60
2023-04-21T13:26:21.097Z,2.78
2023-04-21T13:28:47.963Z,3.00
2023-04-21T13:31:14.513Z,2.88
2023-04-21T13:33:52.194Z,2.95
2023-04-21T13:36:20.097Z,2.92
2023-04-21T13:38:56.385Z,2.70
2023-04-21T13:41:23.052Z,2.97
2023-04-21T13:43:50.234Z,2.97
2023-04-21T13:46:16.852Z,2.60
2023-04-21T13:48:45.221Z,2.50
2023-04-21T13:51:11.705Z,2.85
2023-04-21T13:53:38.229Z,2.55
2023-04-21T13:56:05.000Z,2.90
2023-04-21T13:58:31.635Z,2.47
2023-04-21T14:00:58.723Z,2.70
2023-04-21T14:03:25.414Z,2.60
2023-04-21T14:05:52.267Z,3.00
2023-04-21T14:08:18.837Z,2.85
2023-04-21T14:10:45.483Z,2.97
2023-04-21T14:13:23.085Z,2.58
2023-04-21T14:15:53.919Z,2.53
2023-04-21T14:18:20.628Z,2.88
2023-04-21T14:20:47.366Z,2.83
2023-04-21T14:23:13.878Z,2.80
2023-04-21T14:25:40.520Z,2.60
2023-04-21T14:28:08.407Z,2.72
2023-04-21T14:30:38.613Z,2.72
2023-04-21T14:33:05.654Z,2.65
2023-04-21T14:35:32.352Z,2.85
2023-04-21T14:37:59.260Z,2.58
2023-04-21T14:40:25.932Z,2.63
2023-04-21T14:42:52.572Z,2.53
2023-04-21T14:45:19.093Z,3.03
2023-04-21T14:47:45.864Z,2.65
2023-04-21T14:50:12.534Z,2.60
2023-04-21T14:52:39.801Z,2.90
2023-04-21T14:55:06.761Z,2.72
2023-04-21T14:57:33.323Z,2.92
2023-04-21T15:00:00.317Z,2.88
2023-04-21T15:02:27.037Z,3.05
2023-04-21T15:04:53.883Z,2.53
2023-04-21T15:07:24.337Z,2.85
2023-04-21T15:09:51.988Z,2.70
2023-04-21T15:12:18.701Z,3.03
2023-04-21T15:14:45.407Z,2.30
2023-04-21T15:17:11.945Z,2.88
2023-04-21T15:19:38.347Z,2.25
2023-04-21T15:22:05.058Z,2.92
2023-04-21T15:24:31.760Z,3.05
2023-04-21T15:26:58.364Z,2.65
2023-04-21T15:29:24.860Z,2.35
2023-04-21T15:31:51.359Z,2.60
2023-04-21T15:34:17.968Z,2.63
2023-04-21T15:36:44.564Z,2.30
2023-04-21T15:39:14.007Z,2.42
2023-04-21T15:41:40.944Z,2.83
2023-04-21T15:44:07.708Z,2.67
2023-04-21T15:46:37.175Z,2.40
2023-04-21T15:49:03.836Z,3.15
2023-04-21T15:51:34.556Z,2.33
2023-04-21T15:54:01.102Z,2.97
2023-04-21T15:56:27.601Z,2.97
2023-04-21T15:58:54.049Z,2.45
2023-04-21T16:01:22.296Z,2.88
2023-04-21T16:03:49.733Z,2.80
2023-04-21T16:06:16.741Z,3.03
2023-04-21T16:08:43.645Z,2.67
2023-04-21T16:11:10.371Z,2.80
2023-04-21T16:13:36.908Z,2.78
2023-04-21T16:16:03.621Z,2.60
2023-04-21T16:18:30.287Z,2.78
2023-04-21T16:20:56.932Z,2.70
2023-04-21T16:23:25.309Z,2.45
2023-04-21T16:25:51.961Z,2.50
2023-04-21T16:28:18.559Z,2.70
2023-04-21T16:30:45.704Z,2.80
2023-04-21T16:33:13.110Z,2.53
2023-04-21T16:35:40.040Z,2.97
2023-04-21T16:38:07.083Z,2.70
2023-04-21T16:40:34.204Z,3.17
2023-04-21T16:43:00.935Z,2.33
2023-04-21T16:45:28.742Z,2.63
2023-04-21T16:47:55.808Z,2.38
2023-04-21T16:50:22.565Z,3.00
2023-04-21T16:52:49.098Z,2.90
2023-04-21T16:55:15.917Z,2.72
2023-04-21T16:57:42.432Z,2.70
2023-04-21T17:00:09.471Z,2.38
2023-04-21T17:02:36.420Z,2.60
2023-04-21T17:05:03.862Z,2.28
2023-04-21T17:07:32.050Z,2.60
2023-04-21T17:09:58.761Z,2.20
2023-04-21T17:12:25.354Z,2.30
2023-04-21T17:14:52.016Z,2.47
2023-04-21T17:17:18.629Z,2.63
2023-04-21T17:19:45.304Z,2.67
2023-04-21T17:22:11.978Z,2.80
2023-04-21T17:24:51.683Z,2.72
2023-04-21T17:27:19.589Z,2.92
2023-04-21T17:29:46.949Z,3.03
2023-04-21T17:32:13.943Z,2.53
2023-04-21T17:34:40.756Z,2.50
2023-04-21T17:37:07.374Z,2.83
2023-04-21T17:39:33.958Z,2.35
2023-04-21T17:42:01.915Z,2.78
2023-04-21T17:44:28.457Z,2.72
2023-04-21T17:46:54.983Z,2.40
2023-04-21T17:49:23.075Z,2.55
2023-04-21T17:51:49.513Z,2.70
2023-04-21T17:54:16.984Z,2.90
2023-04-21T17:56:46.073Z,2.50
2023-04-21T17:59:12.664Z,3.10
2023-04-21T18:01:39.209Z,2.53
2023-04-21T18:04:05.945Z,2.58
2023-04-21T18:06:32.644Z,3.28
2023-04-21T18:08:59.192Z,2.83
2023-04-21T18:11:25.589Z,3.13
2023-04-21T18:13:52.049Z,2.95
2023-04-21T18:16:18.626Z,3.00
2023-04-21T18:18:47.208Z,2.80
2023-04-21T18:21:14.650Z,2.58
2023-04-21T18:23:41.218Z,2.97
2023-04-21T18:26:10.141Z,2.88
2023-04-21T18:28:36.815Z,2.80
2023-04-21T18:31:03.755Z,2.85
2023-04-21T18:33:30.434Z,2.72
2023-04-21T18:35:57.000Z,2.83
2023-04-21T18:38:23.591Z,3.00
2023-04-21T18:40:50.043Z,2.72
2023-04-21T18:43:16.861Z,2.90
2023-04-21T18:45:43.466Z,2.80
2023-04-21T18:48:10.051Z,2.75
2023-04-21T18:50:39.877Z,2.42
2023-04-21T18:53:07.771Z,2.42
2023-04-21T18:55:35.926Z,2.33
2023-04-21T18:58:02.627Z,2.72
2023-04-21T19:00:29.783Z,2.70
2023-04-21T19:02:56.582Z,2.97
2023-04-21T19:05:23.307Z,2.78
2023-04-21T19:07:49.819Z,2.67
2023-04-21T19:10:16.500Z,2.45
2023-04-21T19:12:43.149Z,2.88
2023-04-21T19:15:10.120Z,2.47
2023-04-21T19:17:36.771Z,2.50
2023-04-21T19:20:03.736Z,2.72
2023-04-21T19:22:31.917Z,2.85
2023-04-21T19:24:58.352Z,3.00
2023-04-21T19:27:24.910Z,3.33
2023-04-21T19:29:51.475Z,2.70
2023-04-21T19:32:18.194Z,2.70
2023-04-21T19:34:44.830Z,3.00
2023-04-21T19:37:11.526Z,2.70
2023-04-21T19:39:38.015Z,3.40
2023-04-21T19:42:04.816Z,2.90
2023-04-21T19:44:31.823Z,2.95
2023-04-21T19:46:58.474Z,3.00
2023-04-21T19:49:24.965Z,3.22
2023-04-21T19:51:51.815Z,3.42
2023-04-21T19:54:18.184Z,3.45
2023-04-21T19:56:45.017Z,3.15
2023-04-21T19:59:11.467Z,2.83
2023-04-21T20:01:37.930Z,2.95
2023-04-21T20:04:05.242Z,3.35
2023-04-21T20:06:32.984Z,3.03
2023-04-21T20:08:59.388Z,3.08
2023-04-21T20:11:28.788Z,3.20
2023-04-21T20:13:55.945Z,3.58
2023-04-21T20:16:22.514Z,4.07
2023-04-21T20:18:49.474Z,3.53
2023-04-21T20:21:16.021Z,3.63
2023-04-21T20:23:43.534Z,3.58
2023-04-21T20:26:10.192Z,3.58
2023-04-21T20:28:36.688Z,3.65
2023-04-21T20:31:03.233Z,2.85
2023-04-21T20:33:30.440Z,3.25
2023-04-21T20:35:57.090Z,3.88
2023-04-21T20:38:26.562Z,3.40
2023-04-21T20:40:53.257Z,4.20
2023-04-21T20:43:20.178Z,3.50
2023-04-21T20:45:50.308Z,3.13
2023-04-21T20:48:16.799Z,3.47
2023-04-21T20:50:45.467Z,4.03
2023-04-21T20:53:12.465Z,3.92
2023-04-21T20:55:38.905Z,3.92
2023-04-21T20:58:05.440Z,4.05
2023-04-21T21:00:34.118Z,3.65
2023-04-21T21:03:00.877Z,3.38
2023-04-21T21:05:29.061Z,3.53
2023-04-21T21:07:56.685Z,3.47
2023-04-21T21:10:23.127Z,3.53
2023-04-21T21:12:49.580Z,3.30
2023-04-21T21:15:16.207Z,3.30
2023-04-21T21:20:13.482Z,3.50
2023-04-21T21:22:39.952Z,3.15
2023-04-21T21:25:06.792Z,3.50
2023-04-21T21:27:33.346Z,3.80
2023-04-21T21:29:59.982Z,2.90
2023-04-21T21:35:20.239Z,2.83
2023-04-21T21:37:47.165Z,2.80
2023-04-21T21:40:14.251Z,2.55
2023-04-21T21:42:40.832Z,2.50
2023-04-21T21:45:08.262Z,2.80
2023-04-21T21:47:38.300Z,2.83
2023-04-21T21:50:07.707Z,2.17
2023-04-21T21:52:34.270Z,2.88
2023-04-21T21:55:00.921Z,3.10
2023-04-21T21:57:27.495Z,2.58
2023-04-21T21:59:54.068Z,2.10
2023-04-21T22:02:20.683Z,1.98
2023-04-21T22:04:47.634Z,2.10
2023-04-21T22:07:14.333Z,1.92
2023-04-21T22:09:41.426Z,1.80
2023-04-21T22:12:08.243Z,2.20
2023-04-21T22:14:35.151Z,1.98
2023-04-21T22:17:02.971Z,2.08
2023-04-21T22:19:31.007Z,2.20
2023-04-21T22:21:57.851Z,2.38
2023-04-21T22:24:24.381Z,2.38
2023-04-21T22:26:51.116Z,2.40
2023-04-21T22:29:17.797Z,2.00
2023-04-21T22:31:44.482Z,2.47
2023-04-21T22:34:15.004Z,2.25
2023-04-21T22:36:41.525Z,2.05
2023-04-21T22:39:08.093Z,1.90
2023-04-21T22:41:34.654Z,2.08
2023-04-21T22:44:01.178Z,2.00
2023-04-21T22:46:32.031Z,2.05
2023-04-21T22:48:59.871Z,2.10
2023-04-21T22:51:27.808Z,1.98
2023-04-21T22:53:54.340Z,1.90
2023-04-21T22:56:21.175Z,1.98
2023-04-21T22:58:47.862Z,2.00
2023-04-21T23:01:14.690Z,2.00
2023-04-21T23:03:41.447Z,2.00
2023-04-21T23:06:08.299Z,2.10
2023-04-21T23:08:34.825Z,2.22
2023-04-21T23:11:01.976Z,1.92
2023-04-21T23:13:28.516Z,1.85
2023-04-21T23:15:55.039Z,1.92
2023-04-21T23:18:21.682Z,1.80
2023-04-21T23:20:48.232Z,2.00
2023-04-21T23:23:14.730Z,2.10
2023-04-21T23:25:41.245Z,2.30
2023-04-21T23:28:07.772Z,2.40
2023-04-21T23:30:34.610Z,2.50
2023-04-21T23:33:01.342Z,2.33
2023-04-21T23:35:27.986Z,2.65
2023-04-21T23:37:54.583Z,2.70
2023-04-21T23:40:21.151Z,2.42
2023-04-21T23:42:48.130Z,3.00
2023-04-21T23:45:15.339Z,2.88
2023-04-21T23:47:42.029Z,3.03
2023-04-21T23:50:08.948Z,2.85
2023-04-21T23:52:35.543Z,2.90
2023-04-21T23:55:02.197Z,2.70
2023-04-21T23:57:28.938Z,2.80
2023-04-21T23:59:55.472Z,2.80
